createdAt,value
2023-01-09T00:01:39.436Z,70.70
2023-01-09T00:04:09.872Z,70.24
2023-01-09T00:06:40.270Z,69.49
2023-01-09T00:09:08.411Z,70.99
2023-01-09T00:11:36.515Z,70.28
2023-01-09T00:14:05.041Z,70.11
2023-01-09T00:16:33.048Z,70.51
2023-01-09T00:19:01.784Z,70.38
2023-01-09T00:21:31.298Z,69.98
2023-01-09T00:23:59.291Z,70.53
2023-01-09T00:26:27.758Z,70.08
2023-01-09T00:28:56.018Z,71.11
2023-01-09T00:31:24.177Z,70.69
2023-01-09T00:33:59.367Z,70.87
2023-01-09T00:36:28.393Z,69.40
2023-01-09T00:38:58.360Z,70.57
2023-01-09T00:41:30.214Z,70.33
2023-01-09T00:44:03.785Z,69.71
2023-01-09T00:46:35.045Z,70.72
2023-01-09T00:49:05.870Z,70.54
2023-01-09T00:51:34.114Z,71.39
2023-01-09T00:54:05.382Z,71.46
2023-01-09T00:56:35.821Z,71.40
2023-01-09T00:59:04.245Z,70.53
2023-01-09T01:01:32.499Z,71.68
2023-01-09T01:04:20.453Z,71.53
2023-01-09T01:07:06.427Z,71.98
2023-01-09T01:09:36.202Z,71.47
2023-01-09T01:12:07.238Z,72.34
2023-01-09T01:14:36.421Z,71.81
2023-01-09T01:17:04.574Z,71.80
2023-01-09T01:19:32.644Z,72.60
2023-01-09T01:22:00.897Z,72.51
2023-01-09T01:24:29.459Z,72.31
2023-01-09T01:26:58.768Z,70.97
2023-01-09T01:29:27.072Z,72.37
2023-01-09T01:31:55.389Z,71.85
2023-01-09T01:34:23.840Z,71.92
2023-01-09T01:36:51.975Z,72.82
2023-01-09T01:39:20.237Z,72.15
2023-01-09T01:41:48.537Z,73.21
2023-01-09T01:44:53.946Z,73.09
2023-01-09T01:47:26.328Z,70.56
2023-01-09T01:49:54.593Z,70.51
2023-01-09T01:52:23.714Z,71.28
2023-01-09T01:54:52.183Z,71.10
2023-01-09T01:57:20.587Z,70.33
2023-01-09T01:59:55.046Z,70.19
2023-01-09T02:02:30.731Z,71.32
2023-01-09T02:05:01.211Z,72.00
2023-01-09T02:07:30.095Z,71.12
2023-01-09T02:10:00.007Z,69.39
2023-01-09T02:12:29.751Z,71.53
2023-01-09T02:15:00.197Z,71.28
2023-01-09T02:17:55.378Z,71.21
2023-01-09T02:20:44.946Z,70.96
2023-01-09T02:23:41.295Z,70.41
2023-01-09T02:26:35.588Z,68.71
2023-01-09T02:29:35.825Z,68.68
2023-01-09T02:32:16.798Z,69.64
2023-01-09T02:34:54.336Z,68.62
2023-01-09T02:37:32.994Z,68.28
2023-01-09T02:40:10.426Z,67.86
2023-01-09T02:42:42.769Z,66.84
2023-01-09T02:45:11.886Z,65.13
2023-01-09T02:47:44.760Z,65.23
2023-01-09T02:50:17.673Z,68.51
2023-01-09T02:53:11.874Z,69.33
2023-01-09T02:55:53.957Z,69.30
2023-01-09T02:58:42.504Z,69.95
2023-01-09T03:01:25.440Z,70.32
2023-01-09T03:04:05.587Z,68.82
2023-01-09T03:06:42.753Z,70.19
2023-01-09T03:09:16.436Z,69.66
2023-01-09T03:11:49.501Z,68.93
2023-01-09T03:14:21.769Z,66.81
2023-01-09T03:16:54.746Z,66.40
2023-01-09T03:19:29.352Z,66.70
2023-01-09T03:21:58.570Z,68.65
2023-01-09T03:24:26.852Z,68.58
2023-01-09T03:26:55.598Z,67.58
2023-01-09T03:29:24.149Z,65.97
2023-01-09T03:31:52.369Z,67.72
2023-01-09T03:34:20.421Z,65.74
2023-01-09T03:36:50.291Z,65.02
2023-01-09T03:39:18.548Z,65.83
2023-01-09T03:41:47.230Z,64.62
2023-01-09T03:44:15.423Z,65.45
2023-01-09T03:46:43.550Z,63.43
2023-01-09T03:49:11.990Z,64.78
2023-01-09T03:51:40.297Z,64.75
2023-01-09T03:54:09.846Z,63.90
2023-01-09T03:56:37.953Z,65.92
2023-01-09T03:59:06.070Z,65.20
2023-01-09T04:01:34.540Z,64.51
2023-01-09T04:04:03.277Z,66.41
2023-01-09T04:06:31.409Z,64.60
2023-01-09T04:08:59.446Z,65.82
2023-01-09T04:11:28.992Z,65.81
2023-01-09T04:13:57.531Z,65.88
2023-01-09T04:16:26.057Z,66.16
2023-01-09T04:18:54.214Z,65.87
2023-01-09T04:21:22.557Z,65.71
2023-01-09T04:23:50.712Z,65.64
2023-01-09T04:26:18.889Z,65.94
2023-01-09T04:28:48.989Z,64.98
2023-01-09T04:31:17.389Z,64.40
2023-01-09T04:33:45.745Z,65.55
2023-01-09T04:36:13.826Z,65.14
2023-01-09T04:38:42.431Z,63.91
2023-01-09T04:41:11.067Z,65.33
2023-01-09T04:43:42.301Z,64.17
2023-01-09T04:46:11.775Z,65.39
2023-01-09T04:48:40.198Z,64.07
2023-01-09T04:51:08.581Z,63.46
2023-01-09T04:53:36.644Z,63.59
2023-01-09T04:56:05.349Z,65.91
2023-01-09T04:58:33.491Z,66.87
2023-01-09T05:01:01.713Z,66.22
2023-01-09T05:03:31.724Z,66.82
2023-01-09T05:05:59.781Z,67.38
2023-01-09T05:08:27.734Z,67.46
2023-01-09T05:10:55.910Z,68.42
2023-01-09T05:13:24.336Z,68.81
2023-01-09T05:15:52.910Z,68.23
2023-01-09T05:18:21.376Z,69.80
2023-01-09T05:20:51.090Z,68.67
2023-01-09T05:23:19.040Z,68.95
2023-01-09T05:25:47.142Z,68.15
2023-01-09T05:28:15.317Z,69.52
2023-01-09T05:30:43.841Z,69.24
2023-01-09T05:33:11.969Z,68.21
2023-01-09T05:35:39.994Z,68.45
2023-01-09T05:38:09.937Z,68.45
2023-01-09T05:40:40.365Z,68.93
2023-01-09T05:43:08.735Z,66.72
2023-01-09T05:45:37.055Z,67.27
2023-01-09T05:48:05.415Z,66.84
2023-01-09T05:50:33.893Z,68.23
2023-01-09T05:53:02.245Z,68.23
2023-01-09T05:55:31.999Z,68.41
2023-01-09T05:58:00.017Z,69.34
2023-01-09T06:00:28.945Z,69.65
2023-01-09T06:02:57.099Z,68.11
2023-01-09T06:05:25.619Z,71.22
2023-01-09T06:07:53.766Z,70.77
2023-01-09T06:10:21.853Z,70.70
2023-01-09T06:12:53.280Z,71.92
2023-01-09T06:15:22.285Z,72.22
2023-01-09T06:17:50.731Z,71.22
2023-01-09T06:20:19.986Z,72.13
2023-01-09T06:22:52.049Z,72.56
2023-01-09T06:25:20.408Z,70.11
2023-01-09T06:27:48.400Z,70.73
2023-01-09T06:30:18.925Z,71.62
2023-01-09T06:32:49.518Z,71.07
2023-01-09T06:35:20.585Z,70.24
2023-01-09T06:37:49.039Z,67.85
2023-01-09T06:40:20.315Z,67.86
2023-01-09T06:42:49.711Z,68.41
2023-01-09T06:45:19.916Z,67.60
2023-01-09T06:47:50.230Z,68.83
2023-01-09T06:50:18.822Z,68.47
2023-01-09T06:52:47.125Z,66.93
2023-01-09T06:55:16.863Z,66.71
2023-01-09T06:57:45.336Z,67.78
2023-01-09T07:00:14.504Z,65.92
2023-01-09T07:02:44.351Z,66.96
2023-01-09T07:05:13.172Z,67.58
2023-01-09T07:07:42.670Z,69.68
2023-01-09T07:10:12.892Z,69.33
2023-01-09T07:12:41.059Z,67.09
2023-01-09T07:15:10.298Z,65.97
2023-01-09T07:17:38.801Z,66.39
2023-01-09T07:20:10.281Z,66.42
2023-01-09T07:22:38.658Z,67.13
2023-01-09T07:25:07.385Z,68.45
2023-01-09T07:27:35.844Z,68.42
2023-01-09T07:30:05.842Z,69.57
2023-01-09T07:32:34.642Z,70.22
2023-01-09T07:35:03.298Z,69.78
2023-01-09T07:37:34.398Z,70.07
2023-01-09T07:40:03.370Z,70.06
2023-01-09T07:42:31.812Z,68.94
2023-01-09T07:45:00.788Z,67.89
2023-01-09T07:47:29.449Z,68.18
2023-01-09T07:49:58.069Z,69.09
2023-01-09T07:52:28.041Z,69.10
2023-01-09T07:54:57.960Z,68.76
2023-01-09T07:57:26.802Z,67.12
2023-01-09T07:59:55.098Z,65.42
2023-01-09T08:02:23.762Z,67.05
2023-01-09T08:04:52.250Z,65.58
2023-01-09T08:07:21.125Z,65.90
2023-01-09T08:09:49.837Z,64.79
2023-01-09T08:12:19.940Z,65.25
2023-01-09T08:14:48.619Z,67.37
2023-01-09T08:17:16.990Z,68.26
2023-01-09T08:19:45.666Z,68.08
2023-01-09T08:22:14.453Z,67.28
2023-01-09T08:24:43.056Z,66.88
2023-01-09T08:27:11.901Z,65.86
2023-01-09T08:29:41.404Z,64.92
2023-01-09T08:32:09.730Z,65.00
2023-01-09T08:34:38.491Z,63.06
2023-01-09T08:37:06.966Z,63.25
2023-01-09T08:39:37.041Z,64.06
2023-01-09T08:42:23.222Z,65.11
2023-01-09T08:45:10.537Z,67.16
2023-01-09T08:47:39.483Z,66.21
2023-01-09T08:50:08.642Z,65.85
2023-01-09T08:52:37.145Z,66.78
2023-01-09T08:55:06.902Z,65.35
2023-01-09T08:57:35.627Z,64.15
2023-01-09T09:00:06.816Z,65.47
2023-01-09T09:02:35.605Z,66.94
2023-01-09T09:05:04.406Z,66.64
2023-01-09T09:07:33.399Z,67.23
2023-01-09T09:10:02.180Z,67.61
2023-01-09T09:12:30.474Z,66.78
2023-01-09T09:15:16.418Z,66.52
2023-01-09T09:17:46.275Z,67.07
2023-01-09T09:20:14.680Z,66.65
2023-01-09T09:22:43.170Z,67.80
2023-01-09T09:25:11.909Z,67.88
2023-01-09T09:27:40.224Z,67.23
2023-01-09T09:30:11.476Z,66.93
2023-01-09T09:32:40.681Z,66.43
2023-01-09T09:35:11.485Z,65.70
2023-01-09T09:37:40.708Z,66.34
2023-01-09T09:40:19.135Z,66.69
2023-01-09T09:43:23.446Z,66.31
2023-01-09T09:45:59.134Z,63.87
2023-01-09T09:48:36.319Z,64.77
2023-01-09T09:51:40.192Z,64.56
2023-01-09T09:54:15.995Z,66.38
2023-01-09T09:56:49.756Z,65.53
2023-01-09T09:59:21.847Z,65.38
2023-01-09T10:01:57.108Z,65.61
2023-01-09T10:04:28.677Z,64.91
2023-01-09T10:07:01.793Z,65.35
2023-01-09T10:09:43.108Z,64.66
2023-01-09T10:12:27.272Z,64.49
2023-01-09T10:14:57.924Z,65.82
2023-01-09T10:17:44.545Z,65.36
2023-01-09T10:20:39.231Z,64.11
2023-01-09T10:23:21.910Z,63.80
2023-01-09T10:25:58.223Z,65.16
2023-01-09T10:28:46.157Z,64.89
2023-01-09T10:31:23.996Z,64.47
2023-01-09T10:34:02.070Z,64.49
2023-01-09T10:36:42.372Z,64.56
2023-01-09T10:39:19.995Z,64.88
2023-01-09T10:41:57.926Z,65.60
2023-01-09T10:44:35.308Z,65.74
2023-01-09T10:47:07.571Z,66.07
2023-01-09T10:49:39.688Z,66.65
2023-01-09T10:52:16.744Z,66.65
2023-01-09T10:54:56.222Z,66.86
2023-01-09T10:57:40.236Z,68.14
2023-01-09T11:00:15.695Z,67.61
2023-01-09T11:02:44.072Z,67.01
2023-01-09T11:05:16.394Z,66.57
2023-01-09T11:07:48.945Z,66.78
2023-01-09T11:10:18.483Z,66.73
2023-01-09T11:12:48.815Z,67.19
2023-01-09T11:15:31.773Z,66.08
2023-01-09T11:18:24.597Z,67.22
2023-01-09T11:20:53.538Z,66.39
2023-01-09T11:23:28.155Z,66.62
2023-01-09T11:25:59.129Z,65.68
2023-01-09T11:28:29.888Z,66.60
2023-01-09T11:31:03.166Z,65.50
2023-01-09T11:33:35.898Z,66.46
2023-01-09T11:36:10.970Z,66.64
2023-01-09T11:38:52.729Z,67.12
2023-01-09T11:41:23.639Z,66.01
2023-01-09T11:43:55.842Z,66.08
2023-01-09T11:46:39.863Z,66.21
2023-01-09T11:49:23.328Z,65.97
2023-01-09T11:52:17.872Z,67.25
2023-01-09T11:54:51.229Z,66.84
2023-01-09T11:57:20.241Z,67.30
2023-01-09T11:59:50.591Z,67.07
2023-01-09T12:02:53.470Z,69.07
2023-01-09T12:05:36.239Z,69.52
2023-01-09T12:08:22.740Z,69.94
2023-01-09T12:11:11.376Z,69.61
2023-01-09T12:14:04.718Z,69.84
2023-01-09T12:16:40.115Z,69.66
2023-01-09T12:19:34.589Z,70.34
2023-01-09T12:22:13.207Z,70.65
2023-01-09T12:24:57.704Z,70.30
2023-01-09T12:27:37.069Z,68.46
2023-01-09T12:30:27.199Z,68.81
2023-01-09T12:33:13.308Z,68.16
2023-01-09T12:35:44.750Z,68.30
2023-01-09T12:38:30.241Z,68.11
2023-01-09T12:41:42.694Z,67.86
2023-01-09T12:44:46.509Z,67.51
2023-01-09T12:47:33.345Z,67.34
2023-01-09T12:50:18.817Z,65.78
2023-01-09T12:52:50.893Z,65.33
2023-01-09T12:55:22.155Z,66.66
2023-01-09T12:57:54.320Z,67.15
2023-01-09T13:00:26.187Z,67.25
2023-01-09T13:03:11.917Z,66.97
2023-01-09T13:05:46.782Z,66.17
2023-01-09T13:08:19.221Z,67.02
2023-01-09T13:10:50.479Z,67.18
2023-01-09T13:13:24.027Z,67.64
2023-01-09T13:15:57.037Z,67.52
2023-01-09T13:18:32.179Z,67.22
2023-01-09T13:21:02.046Z,66.80
2023-01-09T13:23:39.405Z,66.76
2023-01-09T13:26:12.872Z,67.02
2023-01-09T13:28:47.301Z,67.04
2023-01-09T13:31:47.471Z,67.36
2023-01-09T13:34:22.431Z,67.67
2023-01-09T13:36:55.646Z,66.90
2023-01-09T13:39:26.701Z,66.44
2023-01-09T13:42:15.915Z,67.22
2023-01-09T13:44:45.815Z,66.91
2023-01-09T13:47:20.877Z,67.10
2023-01-09T13:50:26.849Z,66.56
2023-01-09T13:52:56.929Z,66.14
2023-01-09T13:55:30.165Z,67.43
2023-01-09T13:58:22.822Z,66.90
2023-01-09T14:01:04.776Z,67.05
2023-01-09T14:03:35.999Z,67.29
2023-01-09T14:06:17.855Z,66.11
2023-01-09T14:09:06.379Z,66.08
2023-01-09T14:11:35.402Z,66.02
2023-01-09T14:14:18.329Z,66.56
2023-01-09T14:16:47.368Z,65.93
2023-01-09T14:19:31.700Z,65.69
2023-01-09T14:22:01.422Z,65.24
2023-01-09T14:24:33.630Z,65.66
2023-01-09T14:27:03.407Z,65.16
2023-01-09T14:29:44.124Z,65.56
2023-01-09T14:32:38.989Z,64.27
2023-01-09T14:35:17.066Z,64.03
2023-01-09T14:37:47.357Z,63.66
2023-01-09T14:40:22.942Z,62.91
2023-01-09T14:42:54.796Z,62.27
2023-01-09T14:45:26.242Z,63.07
2023-01-09T14:47:58.469Z,63.00
2023-01-09T14:50:34.900Z,64.25
2023-01-09T14:53:07.652Z,64.96
2023-01-09T14:55:51.239Z,65.38
2023-01-09T14:58:23.355Z,64.56
2023-01-09T15:00:59.985Z,65.22
2023-01-09T15:03:33.662Z,66.22
2023-01-09T15:06:03.411Z,65.65
2023-01-09T15:08:32.805Z,64.75
2023-01-09T15:11:03.495Z,63.98
2023-01-09T15:13:37.888Z,63.67
2023-01-09T15:16:07.860Z,63.30
2023-01-09T15:18:42.702Z,62.66
2023-01-09T15:21:20.036Z,63.06
2023-01-09T15:23:48.604Z,63.29
2023-01-09T15:26:27.393Z,62.79
2023-01-09T15:29:02.841Z,62.32
2023-01-09T15:31:31.528Z,61.66
2023-01-09T15:33:59.965Z,61.94
2023-01-09T15:36:31.272Z,61.86
2023-01-09T15:39:00.624Z,61.45
2023-01-09T15:41:48.992Z,61.65
2023-01-09T15:44:20.661Z,62.45
2023-01-09T15:46:50.529Z,61.55
2023-01-09T15:49:20.095Z,62.51
2023-01-09T15:51:50.109Z,61.78
2023-01-09T15:54:24.301Z,62.59
2023-01-09T15:56:53.840Z,62.80
2023-01-09T15:59:28.310Z,63.15
2023-01-09T16:02:21.160Z,64.01
2023-01-09T16:04:57.433Z,64.39
2023-01-09T16:07:25.672Z,63.24
2023-01-09T16:09:53.790Z,63.87
2023-01-09T16:12:26.135Z,63.97
2023-01-09T16:14:58.148Z,63.82
2023-01-09T16:17:27.269Z,63.35
2023-01-09T16:19:58.056Z,64.81
2023-01-09T16:22:28.971Z,64.98
2023-01-09T16:24:58.897Z,65.04
2023-01-09T16:27:30.876Z,64.55
2023-01-09T16:30:01.109Z,65.71
2023-01-09T16:32:31.532Z,67.58
2023-01-09T16:35:06.094Z,67.98
2023-01-09T16:37:36.101Z,67.97
2023-01-09T16:40:31.972Z,67.98
2023-01-09T16:43:01.732Z,67.21
2023-01-09T16:45:33.404Z,66.07
2023-01-09T16:48:02.729Z,66.08
2023-01-09T16:50:31.172Z,64.78
2023-01-09T16:53:00.711Z,65.58
2023-01-09T16:55:29.027Z,65.31
2023-01-09T16:57:57.751Z,65.93
2023-01-09T17:00:27.608Z,65.90
2023-01-09T17:02:57.424Z,66.15
2023-01-09T17:05:26.127Z,67.27
2023-01-09T17:07:56.019Z,67.69
2023-01-09T17:10:25.084Z,68.08
2023-01-09T17:12:53.534Z,67.98
2023-01-09T17:15:21.678Z,66.50
2023-01-09T17:17:51.530Z,66.73
2023-01-09T17:20:20.508Z,66.19
2023-01-09T17:22:48.657Z,66.63
2023-01-09T17:25:34.741Z,68.11
2023-01-09T17:28:21.863Z,68.13
2023-01-09T17:30:50.402Z,68.29
2023-01-09T17:33:20.471Z,67.94
2023-01-09T17:35:48.960Z,68.02
2023-01-09T17:38:17.218Z,68.28
2023-01-09T17:40:46.112Z,68.81
2023-01-09T17:43:14.842Z,68.56
2023-01-09T17:45:44.111Z,68.03
2023-01-09T17:48:17.543Z,68.71
2023-01-09T17:50:48.215Z,67.20
2023-01-09T17:53:17.859Z,68.66
2023-01-09T17:55:46.067Z,68.33
2023-01-09T17:58:26.180Z,68.51
2023-01-09T18:00:54.330Z,68.38
2023-01-09T18:03:24.387Z,68.23
2023-01-09T18:05:54.401Z,67.58
2023-01-09T18:08:22.698Z,67.33
2023-01-09T18:10:51.119Z,67.74
2023-01-09T18:13:19.207Z,67.31
2023-01-09T18:15:47.880Z,67.89
2023-01-09T18:18:16.317Z,66.46
2023-01-09T18:20:45.525Z,66.33
2023-01-09T18:23:16.497Z,66.03
2023-01-09T18:25:45.193Z,66.92
2023-01-09T18:28:15.576Z,66.43
2023-01-09T18:30:47.599Z,67.26
2023-01-09T18:33:18.871Z,68.13
2023-01-09T18:35:47.595Z,67.65
2023-01-09T18:38:17.605Z,67.26
2023-01-09T18:40:46.921Z,67.48
2023-01-09T18:43:15.608Z,67.49
2023-01-09T18:45:44.263Z,68.06
2023-01-09T18:48:13.235Z,67.61
2023-01-09T18:50:41.373Z,67.13
2023-01-09T18:53:09.643Z,66.31
2023-01-09T18:55:39.799Z,65.70
2023-01-09T18:58:08.477Z,65.04
2023-01-09T19:00:37.111Z,66.17
2023-01-09T19:03:05.351Z,65.97
2023-01-09T19:05:34.738Z,67.27
2023-01-09T19:08:02.835Z,65.98
2023-01-09T19:10:30.964Z,64.70
2023-01-09T19:13:00.470Z,65.02
2023-01-09T19:15:30.077Z,64.49
2023-01-09T19:17:58.660Z,64.68
2023-01-09T19:20:26.805Z,64.89
2023-01-09T19:22:57.268Z,65.07
2023-01-09T19:25:25.607Z,65.27
2023-01-09T19:27:56.223Z,65.13
2023-01-09T19:30:25.784Z,66.83
2023-01-09T19:32:53.912Z,70.26
2023-01-09T19:35:22.311Z,70.21
2023-01-09T19:37:50.652Z,69.92
2023-01-09T19:40:19.020Z,69.75
2023-01-09T19:42:47.729Z,68.24
2023-01-09T19:45:16.089Z,67.96
2023-01-09T19:47:47.463Z,68.13
2023-01-09T19:50:16.560Z,67.06
2023-01-09T19:52:45.137Z,66.87
2023-01-09T19:55:15.190Z,66.89
2023-01-09T19:57:45.404Z,66.86
2023-01-09T20:00:15.099Z,66.99
2023-01-09T20:02:45.191Z,67.16
2023-01-09T20:05:13.436Z,67.14
2023-01-09T20:07:41.930Z,67.05
2023-01-09T20:10:11.090Z,66.16
2023-01-09T20:12:39.623Z,65.87
2023-01-09T20:15:10.056Z,64.97
2023-01-09T20:17:38.395Z,65.18
2023-01-09T20:20:10.146Z,65.82
2023-01-09T20:22:38.493Z,66.32
2023-01-09T20:25:10.519Z,67.15
2023-01-09T20:27:38.776Z,67.89
2023-01-09T20:30:09.057Z,67.79
2023-01-09T20:32:38.391Z,66.46
2023-01-09T20:35:09.217Z,65.84
2023-01-09T20:37:38.476Z,65.60
2023-01-09T20:40:07.397Z,65.07
2023-01-09T20:42:36.220Z,64.46
2023-01-09T20:45:05.158Z,64.28
2023-01-09T20:47:33.802Z,64.57
2023-01-09T20:50:02.003Z,65.39
2023-01-09T20:52:31.637Z,66.03
2023-01-09T20:55:00.053Z,65.94
2023-01-09T20:57:28.455Z,66.51
2023-01-09T20:59:56.674Z,66.72
2023-01-09T21:02:25.186Z,67.32
2023-01-09T21:04:54.114Z,66.44
2023-01-09T21:07:22.419Z,65.68
2023-01-09T21:09:52.132Z,64.72
2023-01-09T21:12:27.756Z,64.50
2023-01-09T21:14:56.494Z,64.83
2023-01-09T21:17:24.717Z,64.62
2023-01-09T21:19:52.943Z,64.57
2023-01-09T21:22:21.460Z,64.94
2023-01-09T21:24:52.512Z,64.88
2023-01-09T21:27:21.838Z,64.35
2023-01-09T21:29:50.296Z,64.40
2023-01-09T21:32:18.416Z,64.48
2023-01-09T21:34:46.601Z,64.55
2023-01-09T21:37:15.028Z,66.03
2023-01-09T21:39:43.460Z,65.47
2023-01-09T21:42:38.876Z,64.67
2023-01-09T21:45:31.590Z,64.25
2023-01-09T21:47:59.680Z,65.02
2023-01-09T21:50:28.150Z,65.03
2023-01-09T21:52:56.407Z,64.64
2023-01-09T21:55:25.077Z,65.36
2023-01-09T21:57:56.939Z,64.23
2023-01-09T22:00:27.922Z,64.06
2023-01-09T22:02:56.709Z,65.47
2023-01-09T22:05:27.682Z,65.63
2023-01-09T22:07:57.201Z,66.44
2023-01-09T22:10:25.222Z,66.33
2023-01-09T22:13:11.203Z,65.95
2023-01-09T22:15:41.517Z,65.38
2023-01-09T22:18:09.807Z,66.12
2023-01-09T22:20:38.398Z,64.62
2023-01-09T22:23:06.403Z,64.22
2023-01-09T22:25:37.651Z,64.82
2023-01-09T22:28:06.921Z,64.11
2023-01-09T22:30:35.144Z,65.18
2023-01-09T22:33:07.466Z,65.47
2023-01-09T22:35:35.553Z,64.16
2023-01-09T22:38:04.589Z,64.29
2023-01-09T22:40:33.084Z,64.26
2023-01-09T22:43:01.128Z,63.61
2023-01-09T22:45:30.359Z,63.31
2023-01-09T22:47:58.877Z,63.00
2023-01-09T22:50:28.438Z,63.30
2023-01-09T22:52:56.601Z,63.80
2023-01-09T22:55:24.711Z,64.41
2023-01-09T22:57:52.833Z,63.78
2023-01-09T23:00:21.200Z,62.93
2023-01-09T23:02:49.808Z,63.65
2023-01-09T23:05:19.701Z,63.06
2023-01-09T23:07:49.288Z,63.05
2023-01-09T23:10:17.661Z,63.52
2023-01-09T23:12:48.579Z,63.39
2023-01-09T23:15:16.710Z,63.38
2023-01-09T23:17:45.038Z,64.34
2023-01-09T23:20:14.046Z,64.75
2023-01-09T23:22:42.346Z,65.18
2023-01-09T23:25:14.478Z,65.34
2023-01-09T23:27:43.025Z,65.67
2023-01-09T23:30:12.995Z,65.89
2023-01-09T23:32:41.452Z,65.39
2023-01-09T23:35:10.119Z,64.63
2023-01-09T23:37:38.820Z,64.64
2023-01-09T23:40:07.832Z,64.45
2023-01-09T23:42:54.551Z,64.69
2023-01-09T23:45:23.654Z,64.93
2023-01-09T23:47:52.027Z,65.48
2023-01-09T23:50:20.205Z,65.84
2023-01-09T23:52:48.954Z,65.89
2023-01-09T23:55:16.997Z,66.69
2023-01-09T23:57:46.361Z,68.36
